createdAt,value
2023-04-05T00:00:59.152Z,101056.00
2023-04-05T00:04:02.989Z,101061.31
2023-04-05T00:07:08.801Z,101056.88
2023-04-05T00:10:11.773Z,101055.06
2023-04-05T00:13:14.411Z,101047.06
2023-04-05T00:16:19.676Z,101045.25
2023-04-05T00:19:23.189Z,101039.91
2023-04-05T00:22:26.782Z,101027.44
2023-04-05T00:25:29.464Z,101036.31
2023-04-05T00:28:32.117Z,101033.66
2023-04-05T00:31:36.267Z,101032.72
2023-04-05T00:34:38.959Z,101031.84
2023-04-05T00:37:41.624Z,101027.38
2023-04-05T00:40:44.443Z,101030.91
2023-04-05T00:43:47.988Z,101021.97
2023-04-05T00:46:52.329Z,101031.75
2023-04-05T00:49:55.123Z,101029.94
2023-04-05T00:52:58.311Z,101029.06
2023-04-05T00:56:02.067Z,101033.47
2023-04-05T00:59:04.746Z,101034.34
2023-04-05T01:02:16.907Z,101038.75
2023-04-05T01:05:28.932Z,101037.88
2023-04-05T01:08:41.343Z,101037.84
2023-04-05T01:11:46.198Z,101036.94
2023-04-05T01:14:50.970Z,101028.88
2023-04-05T01:17:57.519Z,101027.09
2023-04-05T01:21:20.907Z,101030.63
2023-04-05T01:24:38.634Z,101023.50
2023-04-05T01:28:02.025Z,101024.31
2023-04-05T01:31:10.947Z,101025.19
2023-04-05T01:34:21.237Z,101023.41
2023-04-05T01:37:28.224Z,101018.94
2023-04-05T01:40:31.823Z,101018.84
2023-04-05T01:43:34.515Z,101001.09
2023-04-05T01:46:38.674Z,101017.06
2023-04-05T01:49:41.577Z,101015.22
2023-04-05T01:52:44.198Z,101007.22
2023-04-05T01:55:47.396Z,101006.31
2023-04-05T01:58:50.112Z,101002.75
2023-04-05T02:01:54.802Z,101002.75
2023-04-05T02:04:57.671Z,101000.94
2023-04-05T02:08:00.488Z,101004.47
2023-04-05T02:11:03.428Z,101001.78
2023-04-05T02:14:06.199Z,100994.69
2023-04-05T02:17:10.688Z,100994.59
2023-04-05T02:20:14.974Z,100978.66
2023-04-05T02:23:18.662Z,100993.75
2023-04-05T02:26:21.510Z,100998.19
2023-04-05T02:29:24.333Z,100996.38
2023-04-05T02:32:28.358Z,101001.75
2023-04-05T02:35:31.028Z,101002.56
2023-04-05T02:38:34.093Z,101001.63
2023-04-05T02:41:37.048Z,100998.88
2023-04-05T02:44:40.000Z,100990.81
2023-04-05T02:47:44.028Z,100991.69
2023-04-05T02:50:49.501Z,100993.44
2023-04-05T02:53:53.044Z,100986.41
2023-04-05T02:56:58.223Z,100997.84
2023-04-05T03:00:00.898Z,100992.47
2023-04-05T03:03:05.021Z,100996.06
2023-04-05T03:06:10.629Z,101003.13
2023-04-05T03:09:14.421Z,101001.31
2023-04-05T03:12:17.091Z,100996.00
2023-04-05T03:15:19.831Z,101002.16
2023-04-05T03:18:25.746Z,101000.41
2023-04-05T03:21:29.922Z,101008.34
2023-04-05T03:24:32.853Z,101004.75
2023-04-05T03:27:35.721Z,101008.31
2023-04-05T03:30:38.404Z,101007.41
2023-04-05T03:33:42.477Z,101005.53
2023-04-05T03:36:45.984Z,101004.63
2023-04-05T03:39:48.690Z,101010.75
2023-04-05T03:42:51.423Z,101004.50
2023-04-05T03:45:54.222Z,101010.69
2023-04-05T03:48:58.953Z,101003.56
2023-04-05T03:52:02.062Z,100991.13
2023-04-05T03:55:05.327Z,100991.13
2023-04-05T03:58:08.220Z,100991.16
2023-04-05T04:01:10.886Z,100986.66
2023-04-05T04:04:15.303Z,100986.63
2023-04-05T04:07:18.298Z,100987.47
2023-04-05T04:10:21.009Z,100983.00
2023-04-05T04:13:23.772Z,100983.91
2023-04-05T04:16:28.734Z,100986.56
2023-04-05T04:19:33.303Z,100992.75
2023-04-05T04:22:38.852Z,100989.09
2023-04-05T04:25:46.078Z,100988.16
2023-04-05T04:28:48.829Z,100985.47
2023-04-05T04:31:51.557Z,100990.75
2023-04-05T04:34:55.911Z,100997.81
2023-04-05T04:37:59.714Z,100985.31
2023-04-05T04:41:07.679Z,100947.75
2023-04-05T04:44:14.973Z,100987.88
2023-04-05T04:47:17.700Z,100999.44
2023-04-05T04:50:22.365Z,100889.75
2023-04-05T04:53:25.125Z,100993.25
2023-04-05T04:56:28.223Z,100986.97
2023-04-05T04:59:31.180Z,100998.59
2023-04-05T05:02:34.219Z,100988.72
2023-04-05T05:05:44.285Z,101003.94
2023-04-05T05:08:47.565Z,100990.66
2023-04-05T05:11:50.378Z,100995.06
2023-04-05T05:14:53.170Z,100951.25
2023-04-05T05:17:56.208Z,100995.06
2023-04-05T05:21:00.522Z,100996.84
2023-04-05T05:24:03.532Z,101002.22
2023-04-05T05:27:06.286Z,101004.03
2023-04-05T05:30:10.064Z,100970.09
2023-04-05T05:33:12.926Z,101001.47
2023-04-05T05:36:17.516Z,100932.81
2023-04-05T05:39:20.540Z,100995.31
2023-04-05T05:42:23.778Z,100999.75
2023-04-05T05:45:27.232Z,100977.50
2023-04-05T05:48:29.908Z,100993.72
2023-04-05T05:51:34.030Z,100999.31
2023-04-05T05:54:36.841Z,100919.22
2023-04-05T05:57:39.582Z,101005.00
2023-04-05T06:00:42.865Z,100972.16
2023-04-05T06:03:46.086Z,101001.66
2023-04-05T06:06:50.173Z,100998.19
2023-04-05T06:09:53.046Z,100993.88
2023-04-05T06:12:55.720Z,100986.09
2023-04-05T06:15:58.501Z,100983.78
2023-04-05T06:19:01.943Z,100971.31
2023-04-05T06:22:06.164Z,100937.81
2023-04-05T06:25:10.165Z,100884.63
2023-04-05T06:28:12.857Z,100951.28
2023-04-05T06:31:17.628Z,100945.34
2023-04-05T06:34:20.526Z,100938.81
2023-04-05T06:37:24.609Z,100939.72
2023-04-05T06:40:27.360Z,100941.72
2023-04-05T06:43:30.457Z,100924.78
2023-04-05T06:46:33.302Z,100921.75
2023-04-05T06:49:36.127Z,100924.69
2023-04-05T06:52:40.336Z,100926.63
2023-04-05T06:55:43.152Z,100933.81
2023-04-05T06:58:45.931Z,100932.13
2023-04-05T07:01:48.638Z,100924.75
2023-04-05T07:04:51.595Z,100913.03
2023-04-05T07:07:55.923Z,100855.69
2023-04-05T07:10:59.481Z,100930.66
2023-04-05T07:14:02.330Z,100931.38
2023-04-05T07:17:06.181Z,100932.63
2023-04-05T07:20:09.667Z,100859.03
2023-04-05T07:23:13.964Z,100944.50
2023-04-05T07:26:16.604Z,100940.06
2023-04-05T07:29:19.386Z,100937.41
2023-04-05T07:32:22.697Z,100925.88
2023-04-05T07:35:26.111Z,100896.50
2023-04-05T07:38:30.881Z,100923.16
2023-04-05T07:41:35.460Z,100923.16
2023-04-05T07:44:38.208Z,100929.38
2023-04-05T07:47:40.959Z,100926.69
2023-04-05T07:50:47.822Z,100935.56
2023-04-05T07:53:52.041Z,100928.38
2023-04-05T07:56:57.523Z,100930.13
2023-04-05T08:00:00.370Z,100930.13
2023-04-05T08:03:04.576Z,100932.75
2023-04-05T08:06:11.700Z,100930.88
2023-04-05T08:09:15.952Z,100841.91
2023-04-05T08:12:18.877Z,100917.34
2023-04-05T08:15:21.832Z,100924.41
2023-04-05T08:18:24.610Z,100918.97
2023-04-05T08:21:27.707Z,100911.66
2023-04-05T08:24:31.751Z,100912.63
2023-04-05T08:27:34.414Z,100902.72
2023-04-05T08:30:37.228Z,100886.59
2023-04-05T08:33:40.024Z,100898.81
2023-04-05T08:36:42.822Z,100824.94
2023-04-05T08:39:46.813Z,100901.34
2023-04-05T08:42:56.316Z,100869.22
2023-04-05T08:46:00.699Z,100890.38
2023-04-05T08:49:07.291Z,100882.09
2023-04-05T08:52:10.041Z,100876.63
2023-04-05T08:55:14.757Z,100874.78
2023-04-05T08:58:18.090Z,100791.97
2023-04-05T09:01:21.631Z,100745.66
2023-04-05T09:04:27.161Z,100855.47
2023-04-05T09:07:31.249Z,100835.88
2023-04-05T09:10:35.734Z,100856.09
2023-04-05T09:13:38.453Z,100855.88
2023-04-05T09:16:42.847Z,100790.91
2023-04-05T09:19:45.598Z,100830.34
2023-04-05T09:22:49.321Z,100859.53
2023-04-05T09:25:53.484Z,100849.44
2023-04-05T09:28:56.166Z,100816.50
2023-04-05T09:31:58.996Z,100840.91
2023-04-05T09:35:03.993Z,100787.56
2023-04-05T09:38:06.735Z,100836.84
2023-04-05T09:41:11.600Z,100800.03
2023-04-05T09:44:14.523Z,100830.84
2023-04-05T09:47:18.329Z,100823.53
2023-04-05T09:50:21.760Z,100825.00
2023-04-05T09:53:24.563Z,100807.78
2023-04-05T09:56:30.531Z,100820.03
2023-04-05T09:59:35.436Z,100818.06
2023-04-05T10:02:39.863Z,100807.97
2023-04-05T10:05:42.957Z,100780.38
2023-04-05T10:08:48.108Z,100792.31
2023-04-05T10:11:52.712Z,100803.38
2023-04-05T10:14:57.140Z,100808.34
2023-04-05T10:18:05.009Z,100797.16
2023-04-05T10:21:12.126Z,100799.44
2023-04-05T10:24:24.680Z,100801.75
2023-04-05T10:27:34.048Z,100802.22
2023-04-05T10:30:40.157Z,100784.94
2023-04-05T10:33:47.621Z,100786.75
2023-04-05T10:36:52.212Z,100778.56
2023-04-05T10:39:57.890Z,100778.56
2023-04-05T10:43:02.240Z,100778.31
2023-04-05T10:46:07.543Z,100769.31
2023-04-05T10:49:17.426Z,100763.59
2023-04-05T10:52:22.759Z,100766.28
2023-04-05T10:55:27.137Z,100767.44
2023-04-05T10:58:33.100Z,100762.63
2023-04-05T11:01:36.501Z,100765.00
2023-04-05T11:04:41.913Z,100757.63
2023-04-05T11:07:46.559Z,100753.88
2023-04-05T11:10:53.427Z,100750.06
2023-04-05T11:13:58.869Z,100752.47
2023-04-05T11:17:01.684Z,100743.75
2023-04-05T11:20:05.895Z,100733.94
2023-04-05T11:23:08.729Z,100740.03
2023-04-05T11:26:11.592Z,100734.84
2023-04-05T11:29:16.729Z,100725.16
2023-04-05T11:32:19.436Z,100724.81
2023-04-05T11:35:24.030Z,100722.88
2023-04-05T11:38:27.572Z,100711.88
2023-04-05T11:41:34.530Z,100717.47
2023-04-05T11:44:47.991Z,100710.59
2023-04-05T11:47:51.035Z,100712.25
2023-04-05T11:50:56.278Z,100692.25
2023-04-05T11:53:59.036Z,100699.94
2023-04-05T11:57:03.553Z,100694.22
2023-04-05T12:00:09.719Z,100686.31
2023-04-05T12:03:13.970Z,100687.03
2023-04-05T12:06:16.713Z,100682.84
2023-04-05T12:09:19.611Z,100680.91
2023-04-05T12:12:22.453Z,100679.44
2023-04-05T12:15:26.766Z,100683.53
2023-04-05T12:18:31.579Z,100671.91
2023-04-05T12:21:34.511Z,100651.06
2023-04-05T12:24:37.669Z,100658.69
2023-04-05T12:27:40.868Z,100656.84
2023-04-05T12:30:51.994Z,100649.22
2023-04-05T12:34:00.372Z,100653.50
2023-04-05T12:37:04.591Z,100644.75
2023-04-05T12:40:08.533Z,100633.78
2023-04-05T12:43:11.667Z,100632.44
2023-04-05T12:46:19.633Z,100636.09
2023-04-05T12:49:22.369Z,100635.69
2023-04-05T12:52:28.160Z,100605.22
2023-04-05T12:55:31.443Z,100618.13
2023-04-05T12:58:36.188Z,100603.63
2023-04-05T13:01:40.811Z,100592.25
2023-04-05T13:04:43.704Z,100609.06
2023-04-05T13:07:47.055Z,100602.25
2023-04-05T13:10:50.705Z,100566.56
2023-04-05T13:13:53.516Z,100592.69
2023-04-05T13:16:57.514Z,100590.59
2023-04-05T13:20:00.560Z,100592.09
2023-04-05T13:23:03.535Z,100589.97
2023-04-05T13:26:07.397Z,100581.78
2023-04-05T13:29:10.036Z,100583.88
2023-04-05T13:32:14.050Z,100579.91
2023-04-05T13:35:16.774Z,100571.25
2023-04-05T13:38:19.659Z,100565.69
2023-04-05T13:41:22.475Z,100571.22
2023-04-05T13:44:25.496Z,100539.72
2023-04-05T13:47:29.623Z,100563.41
2023-04-05T13:50:32.471Z,100535.06
2023-04-05T13:53:35.532Z,100564.91
2023-04-05T13:56:38.550Z,100567.63
2023-04-05T13:59:41.478Z,100556.63
2023-04-05T14:02:45.902Z,100528.25
2023-04-05T14:05:51.256Z,100521.66
2023-04-05T14:08:55.779Z,100543.41
2023-04-05T14:11:59.154Z,100542.19
2023-04-05T14:15:01.987Z,100552.31
2023-04-05T14:18:06.278Z,100538.59
2023-04-05T14:21:09.062Z,100502.31
2023-04-05T14:24:13.674Z,100545.88
2023-04-05T14:27:16.434Z,100478.78
2023-04-05T14:30:20.504Z,100537.97
2023-04-05T14:33:25.107Z,100476.91
2023-04-05T14:36:28.187Z,100527.97
2023-04-05T14:39:30.939Z,100509.00
2023-04-05T14:42:47.772Z,100512.50
2023-04-05T14:45:52.331Z,100507.75
2023-04-05T14:48:56.487Z,100470.97
2023-04-05T14:51:59.221Z,100498.00
2023-04-05T14:55:02.058Z,100497.19
2023-04-05T14:58:04.706Z,100492.41
2023-04-05T15:01:10.061Z,100412.63
2023-04-05T15:04:14.383Z,100421.72
2023-04-05T15:07:17.171Z,100456.06
2023-04-05T15:10:20.370Z,100495.91
2023-04-05T15:13:26.198Z,100486.16
2023-04-05T15:16:30.567Z,100483.59
2023-04-05T15:19:36.268Z,100489.50
2023-04-05T15:22:40.901Z,100461.34
2023-04-05T15:25:43.965Z,100442.94
2023-04-05T15:28:46.700Z,100426.75
2023-04-05T15:31:49.502Z,100438.91
2023-04-05T15:34:53.606Z,100482.22
2023-04-05T15:37:56.293Z,100478.47
2023-04-05T15:40:59.131Z,100481.75
2023-04-05T15:44:02.463Z,100458.56
2023-04-05T15:47:06.053Z,100429.41
2023-04-05T15:50:10.437Z,100372.47
2023-04-05T15:53:13.241Z,100473.69
2023-04-05T15:56:16.219Z,100410.09
2023-04-05T15:59:19.235Z,100480.16
2023-04-05T16:02:22.526Z,100450.63
2023-04-05T16:05:27.054Z,100483.31
2023-04-05T16:08:29.916Z,100426.56
2023-04-05T16:11:34.085Z,100472.00
2023-04-05T16:14:37.304Z,100401.31
2023-04-05T16:17:40.119Z,100356.38
2023-04-05T16:20:44.531Z,100486.41
2023-04-05T16:23:47.641Z,100476.88
2023-04-05T16:26:50.398Z,100486.16
2023-04-05T16:29:53.954Z,100481.97
2023-04-05T16:32:56.854Z,100418.53
2023-04-05T16:36:03.557Z,100395.56
2023-04-05T16:39:07.614Z,100483.13
2023-04-05T16:42:10.747Z,100484.50
2023-04-05T16:45:13.896Z,100473.91
2023-04-05T16:48:17.053Z,100480.41
2023-04-05T16:51:22.042Z,100394.22
2023-04-05T16:54:25.036Z,100431.22
2023-04-05T16:57:28.019Z,100501.47
2023-04-05T17:00:31.301Z,100466.56
2023-04-05T17:03:34.335Z,100466.44
2023-04-05T17:06:38.652Z,100468.25
2023-04-05T17:09:41.598Z,100495.31
2023-04-05T17:12:45.711Z,100486.81
2023-04-05T17:15:49.209Z,100384.91
2023-04-05T17:18:52.473Z,100490.84
2023-04-05T17:21:56.721Z,100475.44
2023-04-05T17:24:59.955Z,100398.31
2023-04-05T17:28:03.250Z,100443.72
2023-04-05T17:31:06.267Z,100497.66
2023-04-05T17:34:13.158Z,100506.91
2023-04-05T17:37:17.669Z,100504.66
2023-04-05T17:40:20.767Z,100508.63
2023-04-05T17:43:24.016Z,100513.34
2023-04-05T17:46:40.204Z,100467.94
2023-04-05T17:49:46.100Z,100492.03
2023-04-05T17:52:50.709Z,100525.06
2023-04-05T17:55:56.562Z,100503.25
2023-04-05T17:58:59.384Z,100525.53
2023-04-05T18:02:03.239Z,100538.31
2023-04-05T18:08:38.933Z,100552.00
2023-04-05T18:11:41.840Z,100567.19
2023-04-05T18:14:44.928Z,100508.28
2023-04-05T18:17:47.881Z,100501.34
2023-04-05T18:20:51.476Z,100566.19
2023-04-05T18:23:56.733Z,100504.81
2023-04-05T18:26:59.841Z,100547.69
2023-04-05T18:30:02.530Z,100579.03
2023-04-05T18:33:05.361Z,100583.75
2023-04-05T18:36:08.832Z,100589.41
2023-04-05T18:39:13.174Z,100572.03
2023-04-05T18:42:16.284Z,100599.63
2023-04-05T18:45:19.234Z,100498.25
2023-04-05T18:48:24.246Z,100603.81
2023-04-05T18:51:27.254Z,100590.75
2023-04-05T18:54:31.369Z,100610.25
2023-04-05T18:57:34.857Z,100562.78
2023-04-05T19:00:37.657Z,100603.59
2023-04-05T19:03:40.507Z,100612.69
2023-04-05T19:06:43.169Z,100618.22
2023-04-05T19:09:47.420Z,100612.06
2023-04-05T19:12:50.091Z,100616.81
2023-04-05T19:15:53.258Z,100620.56
2023-04-05T19:18:55.908Z,100627.06
2023-04-05T19:21:58.751Z,100611.31
2023-04-05T19:25:02.983Z,100566.44
2023-04-05T19:28:06.269Z,100603.78
2023-04-05T19:31:10.753Z,100635.81
2023-04-05T19:34:13.609Z,100644.00
2023-04-05T19:37:16.360Z,100640.53
2023-04-05T19:40:23.545Z,100654.09
2023-04-05T19:43:26.412Z,100647.06
2023-04-05T19:46:30.910Z,100648.94
2023-04-05T19:49:39.207Z,100646.44
2023-04-05T19:52:47.962Z,100612.97
2023-04-05T19:55:52.614Z,100593.59
2023-04-05T19:58:59.343Z,100653.09
2023-04-05T20:02:04.053Z,100656.84
2023-04-05T20:05:14.434Z,100656.13
2023-04-05T20:08:17.224Z,100657.13
2023-04-05T20:11:22.628Z,100643.00
2023-04-05T20:14:29.088Z,100668.00
2023-04-05T20:17:32.005Z,100639.81
2023-04-05T20:20:35.408Z,100631.75
2023-04-05T20:23:40.226Z,100665.53
2023-04-05T20:26:44.852Z,100673.63
2023-04-05T20:29:47.675Z,100668.38
2023-04-05T20:32:50.443Z,100679.16
2023-04-05T20:35:53.288Z,100676.56
2023-04-05T20:38:56.100Z,100668.63
2023-04-05T20:42:00.589Z,100663.34
2023-04-05T20:45:03.706Z,100664.28
2023-04-05T20:48:06.950Z,100669.75
2023-04-05T20:51:10.981Z,100664.53
2023-04-05T20:54:14.177Z,100640.63
2023-04-05T20:57:18.663Z,100670.00
2023-04-05T21:00:21.910Z,100600.97
2023-04-05T21:03:24.875Z,100579.66
2023-04-05T21:06:27.730Z,100542.56
2023-04-05T21:09:30.959Z,100663.09
2023-04-05T21:12:35.816Z,100668.63
2023-04-05T21:15:38.711Z,100664.16
2023-04-05T21:18:41.530Z,100660.72
2023-04-05T21:21:44.438Z,100674.09
2023-04-05T21:24:47.302Z,100582.84
2023-04-05T21:27:51.819Z,100669.75
2023-04-05T21:30:55.126Z,100676.91
2023-04-05T21:33:57.882Z,100529.81
2023-04-05T21:37:00.672Z,100671.72
2023-04-05T21:40:04.367Z,100695.84
2023-04-05T21:43:11.964Z,100687.00
2023-04-05T21:46:14.779Z,100609.84
2023-04-05T21:49:17.625Z,100681.72
2023-04-05T21:52:20.506Z,100679.09
2023-04-05T21:55:23.373Z,100685.38
2023-04-05T21:58:27.468Z,100634.00
2023-04-05T22:01:30.326Z,100633.13
2023-04-05T22:04:33.197Z,100678.41
2023-04-05T22:07:36.633Z,100699.88
2023-04-05T22:10:39.567Z,100689.25
2023-04-05T22:13:45.433Z,100685.69
2023-04-05T22:16:48.398Z,100684.88
2023-04-05T22:19:51.217Z,100683.13
2023-04-05T22:22:54.100Z,100674.28
2023-04-05T22:25:57.037Z,100647.66
2023-04-05T22:29:02.523Z,100629.06
2023-04-05T22:32:06.160Z,100671.69
2023-04-05T22:35:09.406Z,100682.38
2023-04-05T22:38:12.405Z,100672.69
2023-04-05T22:41:15.214Z,100695.78
2023-04-05T22:44:19.392Z,100635.44
2023-04-05T22:47:22.095Z,100693.19
2023-04-05T22:50:24.920Z,100694.97
2023-04-05T22:53:28.380Z,100696.81
2023-04-05T22:56:32.055Z,100693.25
2023-04-05T22:59:36.346Z,100692.41
2023-04-05T23:02:42.312Z,100688.84
2023-04-05T23:05:45.037Z,100689.78
2023-04-05T23:08:48.056Z,100693.34
2023-04-05T23:11:51.113Z,100693.34
2023-04-05T23:14:56.479Z,100691.59
2023-04-05T23:17:59.199Z,100692.50
2023-04-05T23:21:02.202Z,100700.50
2023-04-05T23:24:06.272Z,100692.53
2023-04-05T23:27:08.956Z,100693.44
2023-04-05T23:30:14.031Z,100693.47
2023-04-05T23:33:17.218Z,100694.34
2023-04-05T23:36:22.166Z,100702.38
2023-04-05T23:39:25.198Z,100694.41
2023-04-05T23:42:27.895Z,100687.28
2023-04-05T23:45:32.587Z,100697.97
2023-04-05T23:48:35.302Z,100693.53
2023-04-05T23:51:37.949Z,100690.88
2023-04-05T23:54:40.660Z,100690.91
2023-04-05T23:57:43.439Z,100694.50
